Time;durP1;ratioP1;P1;durP2;ratioP2;P2;SDS_P1;SDS_P2;PMS_P1;PMS_P2;Temp;Humidity;BMP_temperature;BMP_pressure;BME280_temperature;BME280_humidity;BME280_pressure;Samples;Min_cycle;Max_cycle;Signal;HPM_P1;HPM_P2
2023/01/15 00:03:20;;;;;;;1.10;1.00;;;;;;;2.36;95.93;100216.31;10439748;28;20041;-78
2023/01/15 00:08:23;;;;;;;1.92;1.17;;;;;;;2.37;96.32;100223.38;10432124;28;20720;-78
2023/01/15 00:13:27;;;;;;;1.50;1.10;;;;;;;2.39;95.24;100224.78;10440827;28;20041;-78
2023/01/15 00:18:30;;;;;;;2.40;1.20;;;;;;;2.40;95.00;100236.44;10435901;28;20041;-78
2023/01/15 00:28:54;;;;;;;1.95;0.98;;;;;;;2.43;94.94;100219.75;10443221;28;20049;-77
2023/01/15 00:34:03;;;;;;;1.42;1.02;;;;;;;2.43;94.93;100225.16;10445655;28;20048;-77
2023/01/15 00:39:09;;;;;;;2.47;0.95;;;;;;;2.45;95.29;100227.63;10448116;28;20045;-78
2023/01/15 00:44:11;;;;;;;0.95;0.90;;;;;;;2.42;94.68;100224.31;10444935;28;20432;-78
2023/01/15 00:49:17;;;;;;;4.75;1.02;;;;;;;2.41;94.78;100233.50;10445697;28;20037;-77
2023/01/15 00:54:20;;;;;;;1.60;1.00;;;;;;;2.41;95.11;100225.38;10460669;28;20049;-76
2023/01/15 00:59:22;;;;;;;3.58;1.10;;;;;;;2.42;95.19;100220.78;10444556;28;20531;-78
2023/01/15 01:04:25;;;;;;;1.52;1.00;;;;;;;2.45;95.23;100225.75;10429032;28;20041;-79
2023/01/15 01:09:28;;;;;;;3.10;0.95;;;;;;;2.45;95.36;100219.50;10443909;28;20053;-78
2023/01/15 01:14:35;;;;;;;1.95;1.30;;;;;;;2.44;94.84;100221.41;10443297;28;20064;-78
2023/01/15 01:19:38;;;;;;;4.07;1.73;;;;;;;2.44;94.36;100226.00;10426370;28;20403;-79
2023/01/15 01:24:42;;;;;;;1.83;1.25;;;;;;;2.46;94.51;100218.44;10428984;28;20057;-79
2023/01/15 01:29:45;;;;;;;1.73;1.08;;;;;;;2.47;94.24;100211.97;10431074;28;20049;-78
2023/01/15 01:34:47;;;;;;;2.00;1.00;;;;;;;2.46;94.38;100213.84;10414154;28;20052;-79
2023/01/15 01:39:49;;;;;;;1.60;0.90;;;;;;;2.46;94.02;100205.72;10440053;28;20037;-78
2023/01/15 01:45:05;;;;;;;1.67;0.80;;;;;;;2.46;94.17;100178.66;10424367;28;20057;-79
2023/01/15 01:50:11;;;;;;;1.83;1.00;;;;;;;2.48;94.21;100184.66;10424076;28;20048;-78
2023/01/15 01:55:17;;;;;;;2.92;1.10;;;;;;;2.46;94.42;100181.34;10424873;28;20045;-78
2023/01/15 02:00:19;;;;;;;0.70;0.70;;;;;;;2.45;94.01;100182.41;10424831;28;20056;-78
2023/01/15 02:05:28;;;;;;;1.10;1.00;;;;;;;2.44;94.06;100177.25;10443398;28;20491;-78
2023/01/15 02:10:30;;;;;;;3.13;1.00;;;;;;;2.42;94.85;100191.81;10438323;28;20052;-78
2023/01/15 02:15:38;;;;;;;1.40;0.80;;;;;;;2.44;94.08;100172.66;10423442;28;20411;-78
2023/01/15 02:21:04;;;;;;;1.15;0.80;;;;;;;2.41;94.50;100183.94;10441054;28;20050;-78
2023/01/15 02:26:24;;;;;;;1.80;1.00;;;;;;;2.41;94.00;100173.09;10437567;28;20044;-78
2023/01/15 02:31:35;;;;;;;3.10;1.23;;;;;;;2.41;94.51;100175.81;10424880;28;20048;-79
2023/01/15 02:36:41;;;;;;;1.38;1.02;;;;;;;2.37;93.74;100180.06;10427629;28;20052;-78
2023/01/15 02:41:52;;;;;;;2.63;0.85;;;;;;;2.37;93.97;100188.19;10428214;28;20049;-78
2023/01/15 02:46:56;;;;;;;1.10;0.97;;;;;;;2.38;93.95;100189.84;10412147;28;20048;-78
2023/01/15 02:52:07;;;;;;;1.42;0.88;;;;;;;2.38;93.85;100189.84;10411591;28;20037;-79
2023/01/15 02:57:11;;;;;;;1.60;1.00;;;;;;;2.37;93.83;100189.00;10425503;28;20050;-77
2023/01/15 03:02:19;;;;;;;0.98;0.80;;;;;;;2.38;94.73;100179.00;10409647;28;20057;-77
2023/01/15 03:07:26;;;;;;;1.83;1.10;;;;;;;2.34;94.12;100185.97;10410222;28;20041;-77
2023/01/15 03:13:03;;;;;;;4.85;1.10;;;;;;;2.35;95.06;100163.25;10452898;28;20038;-78
2023/01/15 03:18:19;;;;;;;3.17;0.90;;;;;;;2.37;94.57;100169.22;10416078;28;20033;-77
2023/01/15 03:23:23;;;;;;;2.15;0.93;;;;;;;2.37;95.14;100170.06;10423182;28;20041;-79
2023/01/15 03:28:29;;;;;;;7.18;1.80;;;;;;;2.37;94.66;100175.47;10403010;28;20052;-78
2023/01/15 03:33:33;;;;;;;2.35;1.30;;;;;;;2.36;95.08;100165.72;10426799;28;20505;-80
2023/01/15 03:38:37;;;;;;;2.67;1.33;;;;;;;2.35;95.63;100172.19;10449730;28;20167;-78
2023/01/15 03:44:00;;;;;;;1.60;1.27;;;;;;;2.32;95.76;100171.84;10465895;28;20064;-78
2023/01/15 03:49:34;;;;;;;1.73;1.38;;;;;;;2.32;95.41;100175.38;10450022;28;20042;-78
2023/01/15 03:54:57;;;;;;;2.53;1.73;;;;;;;2.30;95.56;100168.56;10436754;28;20419;-77
2023/01/15 04:00:06;;;;;;;2.83;1.60;;;;;;;2.31;95.63;100167.50;10396822;28;20045;-78
2023/01/15 04:05:17;;;;;;;;;;;;;;;2.33;95.84;100170.78;10436320;28;20049;-78
2023/01/15 04:10:22;;;;;;;2.75;1.65;;;;;;;2.31;95.20;100157.50;10434817;28;19920;-78
2023/01/15 04:15:26;;;;;;;3.60;1.85;;;;;;;2.30;95.47;100150.44;10432194;28;20071;-77
2023/01/15 04:20:29;;;;;;;3.05;2.00;;;;;;;2.29;95.23;100145.25;10432399;28;20056;-78
2023/01/15 04:25:32;;;;;;;1.42;1.05;;;;;;;2.28;95.59;100132.78;10433215;28;20041;-78
2023/01/15 04:30:35;;;;;;;2.00;1.58;;;;;;;2.29;95.74;100135.25;10450005;28;20052;-79
2023/01/15 04:35:38;;;;;;;2.58;1.85;;;;;;;2.30;95.45;100138.78;10450109;28;20531;-79
2023/01/15 04:46:00;;;;;;;3.03;1.90;;;;;;;2.32;96.02;100125.81;10386992;28;20041;-78
2023/01/15 04:51:04;;;;;;;3.47;2.20;;;;;;;2.32;95.33;100126.66;10390720;28;20046;-78
2023/01/15 04:56:06;;;;;;;2.70;2.13;;;;;;;2.29;95.54;100132.53;10407351;28;20074;-79
2023/01/15 05:01:12;;;;;;;3.60;2.47;;;;;;;2.30;95.33;100138.78;10407593;28;20041;-78
2023/01/15 05:06:17;;;;;;;3.57;2.20;;;;;;;2.29;95.24;100126.31;10407132;28;20042;-78
2023/01/15 05:11:20;;;;;;;3.42;2.22;;;;;;;2.29;95.65;100129.00;10407511;28;20061;-79
2023/01/15 05:16:25;;;;;;;3.15;2.72;;;;;;;2.29;95.32;100134.44;10402765;28;20054;-79
2023/01/15 05:21:32;;;;;;;3.53;2.60;;;;;;;2.32;95.23;100120.41;10401691;28;20528;-78
2023/01/15 05:26:35;;;;;;;4.27;2.57;;;;;;;2.31;95.30;100119.59;10405430;28;20038;-78
2023/01/15 05:31:38;;;;;;;3.88;2.58;;;;;;;2.32;95.39;100120.41;10403228;28;20480;-78
2023/01/15 05:36:40;;;;;;;4.57;2.67;;;;;;;2.32;95.19;100125.81;10406211;28;20042;-78
2023/01/15 05:41:48;;;;;;;2.95;1.83;;;;;;;2.33;94.72;100122.88;10421702;28;20088;-77
2023/01/15 05:46:53;;;;;;;5.28;2.78;;;;;;;2.33;95.13;100122.88;10430447;28;20049;-79
2023/01/15 05:51:59;;;;;;;9.10;3.13;;;;;;;2.34;95.33;100093.91;10422322;28;20042;-79
2023/01/15 05:57:01;;;;;;;4.22;2.65;;;;;;;2.33;94.63;100097.69;10427256;28;20037;-80
2023/01/15 06:02:04;;;;;;;6.97;3.55;;;;;;;2.30;94.62;100087.34;10443926;28;20045;-78
2023/01/15 06:07:06;;;;;;;5.72;3.42;;;;;;;2.27;94.11;100071.59;10442963;28;20408;-79
2023/01/15 06:12:09;;;;;;;4.97;2.05;;;;;;;2.25;94.85;100066.38;10442343;28;20034;-78
2023/01/15 06:17:11;;;;;;;5.93;3.45;;;;;;;2.27;94.46;100085.94;10439087;28;20057;-77
2023/01/15 06:22:13;;;;;;;4.97;3.25;;;;;;;2.23;94.52;100071.22;10437881;28;20053;-78
2023/01/15 06:27:15;;;;;;;8.25;3.85;;;;;;;2.23;93.79;100062.28;10441180;28;20412;-77
2023/01/15 06:32:18;;;;;;;7.95;3.13;;;;;;;2.20;94.51;100057.34;10437529;28;20049;-79
2023/01/15 06:37:20;;;;;;;8.80;4.18;;;;;;;2.18;94.32;100054.88;10422879;28;20501;-79
2023/01/15 06:47:44;;;;;;;3.72;3.00;;;;;;;2.15;93.46;100051.84;10429002;28;20666;-79
2023/01/15 06:52:46;;;;;;;8.30;4.30;;;;;;;2.14;94.40;100033.97;10443922;28;20045;-80
2023/01/15 06:57:48;;;;;;;6.88;4.00;;;;;;;2.10;93.64;100042.56;10446435;28;20037;-80
2023/01/15 07:02:51;;;;;;;8.23;4.20;;;;;;;2.07;93.85;100007.84;10412016;28;20041;-79
2023/01/15 07:07:54;;;;;;;8.20;4.05;;;;;;;2.07;94.06;100007.84;10445943;28;20033;-79
2023/01/15 07:12:56;;;;;;;3.83;3.35;;;;;;;2.03;93.37;99998.56;10442800;28;20420;-79
2023/01/15 07:17:58;;;;;;;6.68;4.90;;;;;;;2.03;93.56;99993.16;10441288;28;20044;-77
2023/01/15 07:23:01;;;;;;;5.88;3.63;;;;;;;2.00;93.60;99990.13;10422804;28;20053;-77
2023/01/15 07:28:03;;;;;;;6.45;4.45;;;;;;;1.97;93.60;99994.13;10432987;28;20697;-77
2023/01/15 07:33:05;;;;;;;4.75;3.10;;;;;;;1.93;93.08;99968.63;10441226;28;20048;-77
2023/01/15 07:38:08;;;;;;;6.88;4.45;;;;;;;1.87;93.60;99968.75;10436925;28;20048;-78
2023/01/15 07:53:52;;;;;;;6.72;3.95;;;;;;;1.74;92.70;99959.06;10441656;28;20037;-80
2023/01/15 07:58:54;;;;;;;6.45;3.33;;;;;;;1.71;92.90;99945.97;10443308;28;20041;-80
2023/01/15 08:03:56;;;;;;;7.25;3.67;;;;;;;1.66;92.68;99932.38;10427462;28;20053;-78
2023/01/15 08:08:58;;;;;;;5.95;3.90;;;;;;;1.66;92.27;99938.59;10431175;28;20048;-77
2023/01/15 08:19:23;;;;;;;7.40;4.70;;;;;;;1.66;91.94;99922.38;10435529;28;20071;-77
2023/01/15 08:24:27;;;;;;;5.82;3.90;;;;;;;1.65;91.65;99931.53;10449298;28;20048;-77
2023/01/15 08:29:29;;;;;;;8.68;4.38;;;;;;;1.66;91.55;99905.31;10446125;28;20056;-79
2023/01/15 08:34:31;;;;;;;6.55;4.75;;;;;;;1.63;91.91;99900.41;10446102;28;20061;-78
2023/01/15 08:39:33;;;;;;;7.68;3.75;;;;;;;1.59;90.71;99905.47;10445385;28;20038;-78
2023/01/15 08:44:35;;;;;;;8.50;3.78;;;;;;;1.59;91.36;99899.25;10393000;28;20054;-79
2023/01/15 08:49:38;;;;;;;8.10;3.63;;;;;;;1.60;91.28;99899.00;10405250;28;20042;-78
2023/01/15 08:54:40;;;;;;;5.57;4.38;;;;;;;1.60;90.71;99863.84;10397083;28;20331;-79
2023/01/15 08:59:42;;;;;;;4.22;2.85;;;;;;;1.59;90.83;99875.72;10427725;28;20069;-79
2023/01/15 09:04:44;;;;;;;4.55;3.08;;;;;;;1.57;90.41;99837.31;10408618;28;20057;-79
2023/01/15 09:09:46;;;;;;;8.25;4.78;;;;;;;1.54;90.84;99826.13;10408659;28;20519;-78
2023/01/15 09:14:53;;;;;;;6.18;2.78;;;;;;;1.51;90.64;99822.84;10403554;28;20053;-77
2023/01/15 09:19:55;;;;;;;6.82;4.00;;;;;;;1.50;90.26;99809.56;10397571;28;20047;-79
2023/01/15 09:24:58;;;;;;;4.25;2.63;;;;;;;1.51;90.79;99813.91;10399041;28;20052;-77
2023/01/15 09:30:06;;;;;;;2.65;1.80;;;;;;;1.49;90.59;99789.00;10403802;28;20061;-78
2023/01/15 09:35:08;;;;;;;4.70;2.88;;;;;;;1.52;90.40;99799.34;10361632;28;20374;-78
2023/01/15 09:40:29;;;;;;;10.75;4.53;;;;;;;1.51;90.71;99760.66;10393916;28;20049;-77
2023/01/15 09:46:33;;;;;;;5.30;3.28;;;;;;;1.51;90.12;99752.56;10395896;28;20042;-77
2023/01/15 09:51:41;;;;;;;7.15;3.58;;;;;;;1.49;90.22;99732.25;10319251;28;20045;-78
2023/01/15 09:56:47;;;;;;;7.38;4.15;;;;;;;1.50;90.12;99717.66;10438420;28;20041;-80
2023/01/15 10:01:50;;;;;;;8.40;4.57;;;;;;;1.47;89.68;99716.25;10441013;28;20053;-79
2023/01/15 10:07:02;;;;;;;9.27;4.88;;;;;;;1.47;89.71;99689.22;10443052;28;20541;-79
2023/01/15 10:12:34;;;;;;;9.35;4.50;;;;;;;1.49;88.89;99676.28;10437730;28;20496;-79
2023/01/15 10:17:42;;;;;;;5.53;3.40;;;;;;;1.49;89.11;99673.59;10413242;28;20056;-78
2023/01/15 10:23:09;;;;;;;7.53;3.72;;;;;;;1.46;89.16;99638.94;10422675;28;20054;-79
2023/01/15 10:28:18;;;;;;;6.85;4.05;;;;;;;1.43;88.96;99628.63;10457260;28;20053;-79
2023/01/15 10:33:45;;;;;;;6.07;3.13;;;;;;;1.44;89.26;99599.72;10438302;28;20045;-77
2023/01/15 10:39:03;;;;;;;6.82;4.05;;;;;;;1.45;88.38;99602.16;10427753;28;20053;-74
2023/01/15 10:44:17;;;;;;;7.57;4.00;;;;;;;1.47;88.09;99594.63;10417772;28;20069;-73
2023/01/15 10:49:19;;;;;;;8.82;4.40;;;;;;;1.51;87.96;99595.75;10415178;28;20084;-75
2023/01/15 10:55:26;;;;;;;8.05;4.35;;;;;;;1.55;88.35;99562.81;10430390;28;20050;-76
2023/01/15 11:00:28;;;;;;;6.27;3.90;;;;;;;1.56;87.88;99575.25;10337539;28;20050;-75
2023/01/15 11:05:31;;;;;;;8.57;5.18;;;;;;;1.62;87.29;99552.66;10422662;28;20064;-77
2023/01/15 11:10:34;;;;;;;8.35;4.65;;;;;;;1.59;86.75;99540.47;10407903;28;20037;-78
2023/01/15 11:20:59;;;;;;;13.27;4.75;;;;;;;1.57;87.32;99517.44;10400357;28;20046;-76
2023/01/15 11:26:02;;;;;;;8.43;4.60;;;;;;;1.58;86.90;99500.97;10426994;28;20053;-77
2023/01/15 11:31:06;;;;;;;10.30;5.00;;;;;;;1.65;86.88;99508.88;10431174;28;20053;-75
2023/01/15 11:36:25;;;;;;;8.50;4.70;;;;;;;1.71;86.89;99486.25;10426639;28;20043;-74
2023/01/15 11:52:21;;;;;;;10.27;5.13;;;;;;;1.82;85.52;99498.84;10424923;28;20076;-75
2023/01/15 11:57:30;;;;;;;10.00;5.15;;;;;;;1.80;85.92;99479.34;10423706;28;20050;-75
2023/01/15 12:02:44;;;;;;;10.25;5.35;;;;;;;1.79;86.15;99478.53;10417966;28;20038;-74
2023/01/15 12:07:52;;;;;;;7.88;5.10;;;;;;;1.74;87.37;99475.75;10436307;28;20061;-71
2023/01/15 12:13:08;;;;;;;9.02;5.32;;;;;;;1.64;87.83;99434.25;10439667;28;20038;-73
2023/01/15 12:18:32;;;;;;;8.75;4.90;;;;;;;1.58;88.37;99437.97;10434558;28;20065;-74
2023/01/15 12:24:01;;;;;;;11.52;5.40;;;;;;;1.53;88.78;99438.69;10434966;28;20092;-75
2023/01/15 12:29:20;;;;;;;10.05;5.40;;;;;;;1.42;89.08;99408.03;10438690;28;20068;-74
2023/01/15 12:34:27;;;;;;;10.68;5.65;;;;;;;1.40;90.06;99410.19;10426740;28;20048;-75
2023/01/15 12:39:32;;;;;;;11.70;6.43;;;;;;;1.29;91.43;99403.00;10436317;28;20057;-75
2023/01/15 12:44:59;;;;;;;4.43;2.90;;;;;;;1.19;91.13;99390.16;10376188;28;20050;-76
2023/01/15 12:50:19;;;;;;;10.18;5.60;;;;;;;1.15;91.75;99385.53;10399543;28;20512;-76
2023/01/15 12:55:28;;;;;;;10.77;5.25;;;;;;;1.11;92.92;99374.41;10390114;28;20177;-74
2023/01/15 13:00:35;;;;;;;9.75;4.90;;;;;;;1.12;92.59;99369.81;10420529;28;20046;-75
2023/01/15 13:05:53;;;;;;;9.05;4.53;;;;;;;1.08;92.88;99363.28;10366269;28;20034;-76
2023/01/15 13:10:55;;;;;;;6.82;3.88;;;;;;;1.03;92.85;99379.41;10382103;28;20093;-76
2023/01/15 13:16:18;;;;;;;8.75;5.68;;;;;;;1.01;93.59;99354.53;10399801;28;20141;-76
2023/01/15 13:21:23;;;;;;;10.45;4.72;;;;;;;0.99;94.02;99357.47;10377889;28;20504;-79
2023/01/15 13:26:35;;;;;;;10.10;5.50;;;;;;;0.94;94.80;99362.00;10376148;28;20128;-77
2023/01/15 13:31:56;;;;;;;11.25;5.03;;;;;;;0.86;94.66;99350.56;10418470;28;20053;-78
2023/01/15 13:37:04;;;;;;;6.90;4.50;;;;;;;0.89;94.69;99360.06;10430264;28;20053;-77
2023/01/15 13:42:30;;;;;;;11.75;5.97;;;;;;;0.89;94.83;99354.66;10413246;28;20092;-75
2023/01/15 13:47:35;;;;;;;9.50;5.00;;;;;;;0.85;95.76;99357.03;10427623;28;20140;-77
2023/01/15 13:52:38;;;;;;;8.32;4.38;;;;;;;0.85;96.09;99348.91;10444836;28;20060;-76
2023/01/15 13:57:41;;;;;;;6.85;3.60;;;;;;;0.86;95.71;99338.94;10426848;28;20471;-77
2023/01/15 14:02:51;;;;;;;7.00;4.43;;;;;;;0.84;96.20;99336.50;10420261;28;20045;-77
2023/01/15 14:07:54;;;;;;;7.72;4.45;;;;;;;0.82;96.93;99337.81;10442729;28;20037;-75
2023/01/15 14:13:29;;;;;;;7.25;4.60;;;;;;;0.75;96.86;99332.59;10439579;28;20046;-76
2023/01/15 14:19:02;;;;;;;6.25;3.83;;;;;;;0.75;97.64;99339.88;10442790;28;20054;-75
2023/01/15 14:24:29;;;;;;;7.88;3.97;;;;;;;0.74;97.73;99328.28;10430245;28;20496;-74
2023/01/15 14:29:58;;;;;;;9.63;4.18;;;;;;;0.71;98.25;99325.25;10431052;28;20045;-78
2023/01/15 14:35:01;;;;;;;8.00;4.22;;;;;;;0.75;97.99;99321.81;10457845;28;20032;-80
2023/01/15 14:40:05;;;;;;;7.70;3.03;;;;;;;0.72;97.99;99322.31;10441310;28;20107;-78
2023/01/15 14:45:17;;;;;;;7.93;3.85;;;;;;;0.74;98.49;99336.38;10437325;28;20064;-83
2023/01/15 14:50:25;;;;;;;3.78;2.55;;;;;;;0.75;98.62;99326.38;10427174;28;20053;-79
2023/01/15 14:55:29;;;;;;;6.80;2.88;;;;;;;0.72;98.88;99316.09;10456330;28;20148;-80
2023/01/15 15:00:37;;;;;;;5.85;3.70;;;;;;;0.71;98.62;99314.47;10441699;28;20074;-78
2023/01/15 15:05:40;;;;;;;6.53;3.95;;;;;;;0.66;98.90;99307.09;10429329;28;20041;-78
2023/01/15 15:10:43;;;;;;;10.48;3.75;;;;;;;0.67;99.08;99314.13;10437507;28;20037;-77
2023/01/15 15:16:06;;;;;;;5.40;2.85;;;;;;;0.69;98.44;99303.88;10422136;28;20053;-76
2023/01/15 15:21:27;;;;;;;5.85;3.13;;;;;;;0.68;98.25;99302.25;10419540;28;20041;-76
2023/01/15 15:26:31;;;;;;;8.20;3.22;;;;;;;0.68;98.47;99294.16;10420811;28;20044;-76
2023/01/15 15:31:40;;;;;;;5.43;3.50;;;;;;;0.67;98.71;99292.50;10438127;28;20084;-75
2023/01/15 15:36:43;;;;;;;;;;;;;;;0.69;98.81;99284.16;10455207;28;20400;-75
2023/01/15 15:52:52;;;;;;;5.20;3.15;;;;;;;0.67;98.21;99272.81;10458338;28;20037;-74
2023/01/15 15:57:59;;;;;;;4.68;3.22;;;;;;;0.67;98.78;99260.13;10441525;28;20037;-75
2023/01/15 16:03:07;;;;;;;4.72;3.50;;;;;;;0.65;98.29;99256.84;10431866;28;20041;-75
2023/01/15 16:08:19;;;;;;;5.35;2.10;;;;;;;0.67;97.81;99257.41;10450730;28;20080;-73
2023/01/15 16:13:35;;;;;;;5.10;2.92;;;;;;;0.67;98.77;99249.31;10421006;28;20048;-74
2023/01/15 16:18:43;;;;;;;4.25;2.97;;;;;;;0.66;98.47;99247.69;10434651;28;20046;-75
2023/01/15 16:24:01;;;;;;;4.65;2.30;;;;;;;0.67;98.32;99246.63;10449175;28;20045;-73
2023/01/15 16:29:05;;;;;;;3.95;2.55;;;;;;;0.67;98.06;99254.72;10417227;28;20053;-74
2023/01/15 16:34:26;;;;;;;4.43;2.95;;;;;;;0.64;97.96;99236.34;10441906;28;20033;-74
2023/01/15 16:39:28;;;;;;;3.63;2.40;;;;;;;0.65;98.30;99239.84;10442513;28;20041;-78
2023/01/15 16:44:33;;;;;;;6.18;3.40;;;;;;;0.63;98.54;99237.41;10417116;28;20049;-76
2023/01/15 16:49:36;;;;;;;2.40;1.67;;;;;;;0.62;98.22;99235.78;10399478;28;20528;-77
2023/01/15 16:54:40;;;;;;;3.47;2.42;;;;;;;0.58;98.10;99243.56;10353511;28;20073;-77
2023/01/15 16:59:45;;;;;;;4.25;2.88;;;;;;;0.58;98.18;99237.34;10394134;28;20053;-76
2023/01/15 17:04:50;;;;;;;1.95;1.65;;;;;;;0.53;98.50;99232.72;10405590;28;20054;-77
2023/01/15 17:09:56;;;;;;;3.13;1.85;;;;;;;0.51;98.50;99225.91;10400067;28;20050;-76
2023/01/15 17:15:18;;;;;;;4.70;2.67;;;;;;;0.51;98.50;99240.22;10371916;28;20077;-75
2023/01/15 17:20:26;;;;;;;5.30;2.47;;;;;;;0.49;98.64;99222.63;10387718;28;20042;-76
2023/01/15 17:25:33;;;;;;;4.07;2.70;;;;;;;0.40;99.11;99219.56;10388164;28;20447;-75
2023/01/15 17:30:36;;;;;;;3.22;2.42;;;;;;;0.44;99.48;99227.97;10401832;28;20050;-76
2023/01/15 17:35:41;;;;;;;2.33;1.80;;;;;;;0.38;99.85;99220.88;10405717;28;20076;-73
2023/01/15 17:40:46;;;;;;;4.68;2.30;;;;;;;0.33;99.93;99224.31;10398802;28;20054;-75
2023/01/15 17:45:48;;;;;;;4.03;2.38;;;;;;;0.30;99.97;99239.13;10406885;28;20072;-74
2023/01/15 17:50:54;;;;;;;3.05;2.00;;;;;;;0.30;100.00;99227.50;10425517;28;20125;-75
2023/01/15 18:06:49;;;;;;;2.58;2.00;;;;;;;0.23;100.00;99222.31;10431519;28;20049;-76
2023/01/15 18:11:51;;;;;;;2.83;2.20;;;;;;;0.20;100.00;99219.28;10439967;28;20053;-76
2023/01/15 18:16:53;;;;;;;2.20;1.77;;;;;;;0.16;100.00;99210.03;10444899;28;20193;-75
2023/01/15 18:21:56;;;;;;;2.22;1.70;;;;;;;0.14;100.00;99220.25;10437688;28;20057;-75
2023/01/15 18:26:58;;;;;;;4.50;2.60;;;;;;;0.15;100.00;99208.41;10434827;28;20053;-74
2023/01/15 18:32:00;;;;;;;2.20;1.90;;;;;;;0.14;100.00;99217.56;10446285;28;20042;-76
2023/01/15 18:37:04;;;;;;;2.83;1.83;;;;;;;0.12;100.00;99196.25;10434493;28;20037;-75
2023/01/15 18:47:13;;;;;;;3.33;2.50;;;;;;;0.10;100.00;99205.66;10421109;28;20053;-75
2023/01/15 18:57:37;;;;;;;6.05;3.15;;;;;;;0.14;100.00;99201.38;10451170;28;20041;-83
2023/01/15 19:02:39;;;;;;;3.08;2.20;;;;;;;0.16;100.00;99200.06;10427357;28;20037;-78
2023/01/15 19:07:47;;;;;;;9.65;4.57;;;;;;;0.21;100.00;99196.66;10440656;28;20045;-77
2023/01/15 19:12:49;;;;;;;3.13;2.10;;;;;;;0.23;100.00;99195.34;10430692;28;20049;-74
2023/01/15 19:23:12;;;;;;;6.45;2.85;;;;;;;0.33;100.00;99185.72;10444494;28;20424;-74
2023/01/15 19:28:17;;;;;;;2.97;2.22;;;;;;;0.34;100.00;99196.25;10459450;28;20054;-74
2023/01/15 19:33:20;;;;;;;2.63;1.98;;;;;;;0.38;100.00;99200.13;10439484;28;20068;-76
2023/01/15 19:38:22;;;;;;;2.03;1.50;;;;;;;0.36;100.00;99191.47;10408484;28;20128;-76
2023/01/15 19:54:07;;;;;;;1.70;1.27;;;;;;;0.42;99.79;99189.63;10442682;28;20048;-77
2023/01/15 19:59:09;;;;;;;2.50;1.50;;;;;;;0.40;100.00;99197.97;10451764;28;20060;-78
2023/01/15 20:04:11;;;;;;;3.60;1.90;;;;;;;0.39;100.00;99177.47;10453845;28;20037;-77
2023/01/15 20:09:13;;;;;;;2.53;1.67;;;;;;;0.38;99.79;99194.72;10446155;28;20053;-77
2023/01/15 20:14:15;;;;;;;2.08;1.50;;;;;;;0.39;100.00;99184.75;10443316;28;20056;-76
2023/01/15 20:19:18;;;;;;;2.35;1.58;;;;;;;0.42;99.56;99186.94;10420128;28;20050;-75
2023/01/15 20:24:21;;;;;;;1.70;1.42;;;;;;;0.42;99.79;99170.75;10442132;28;20054;-77
2023/01/15 20:29:23;;;;;;;3.88;2.60;;;;;;;0.42;100.00;99186.94;10440938;28;20046;-77
2023/01/15 20:34:26;;;;;;;1.65;1.30;;;;;;;0.47;99.91;99173.50;10443083;28;20041;-76
2023/01/15 20:39:30;;;;;;;2.72;1.63;;;;;;;0.47;99.80;99171.63;10433748;28;20046;-75
2023/01/15 20:49:53;;;;;;;5.20;2.20;;;;;;;0.47;99.53;99192.38;10386685;28;20528;-76
2023/01/15 20:54:55;;;;;;;2.10;1.02;;;;;;;0.46;99.31;99185.38;10404757;28;20052;-78
2023/01/15 20:59:57;;;;;;;2.15;1.20;;;;;;;0.46;99.80;99193.47;10407803;28;20049;-77
2023/01/15 21:05:00;;;;;;;2.05;1.30;;;;;;;0.47;99.19;99195.09;10386875;28;20054;-75
2023/01/15 21:10:04;;;;;;;1.75;1.23;;;;;;;0.49;99.62;99187.56;10390581;28;20037;-74
2023/01/15 21:15:07;;;;;;;1.58;1.27;;;;;;;0.49;99.78;99196.47;10376069;28;20050;-75
2023/01/15 21:20:11;;;;;;;1.85;1.27;;;;;;;0.51;99.67;99180.84;10373473;28;20049;-75
2023/01/15 21:25:13;;;;;;;1.90;1.52;;;;;;;0.53;99.25;99162.53;10397021;28;20066;-77
2023/01/15 21:30:15;;;;;;;2.03;1.30;;;;;;;0.52;99.18;99157.38;10389557;28;20409;-77
2023/01/15 21:35:18;;;;;;;1.95;1.27;;;;;;;0.56;98.55;99158.50;10404513;28;20418;-76
2023/01/15 21:40:20;;;;;;;1.40;1.20;;;;;;;0.54;98.77;99172.25;10400328;28;20049;-76
2023/01/15 21:45:22;;;;;;;1.48;1.30;;;;;;;0.55;99.35;99200.06;10416073;28;20172;-78
2023/01/15 21:50:24;;;;;;;1.23;0.88;;;;;;;0.58;98.72;99197.66;10428073;28;20045;-76
2023/01/15 21:55:27;;;;;;;1.58;1.40;;;;;;;0.63;98.94;99199.63;10427857;28;20030;-75
2023/01/15 22:00:29;;;;;;;1.98;1.40;;;;;;;0.68;98.44;99171.84;10426529;28;20064;-78
2023/01/15 22:05:32;;;;;;;1.75;1.45;;;;;;;0.71;98.42;99185.69;10429385;28;20046;-75
2023/01/15 22:10:34;;;;;;;1.15;1.05;;;;;;;0.74;97.87;99176.25;10411545;28;20484;-76
2023/01/15 22:15:36;;;;;;;2.00;1.17;;;;;;;0.69;97.39;99193.19;10413141;28;20036;-84
2023/01/15 22:20:38;;;;;;;1.42;1.23;;;;;;;0.66;97.61;99204.50;10445690;28;20499;-84
2023/01/15 22:25:42;;;;;;;1.52;0.98;;;;;;;0.63;97.46;99205.00;10436131;28;20052;-75
2023/01/15 22:30:44;;;;;;;1.27;1.00;;;;;;;0.63;97.52;99193.41;10412716;28;20037;-76
2023/01/15 22:35:56;;;;;;;1.40;0.98;;;;;;;0.63;98.04;99193.41;10427236;28;20033;-77
2023/01/15 22:40:58;;;;;;;1.92;1.30;;;;;;;0.60;97.80;99200.13;10413076;28;20049;-77
2023/01/15 22:46:13;;;;;;;1.63;1.10;;;;;;;0.60;97.81;99176.63;10434858;28;20057;-77
2023/01/15 22:51:15;;;;;;;1.77;1.05;;;;;;;0.62;97.58;99157.50;10435299;28;20053;-76
2023/01/15 22:56:17;;;;;;;0.82;0.80;;;;;;;0.61;97.18;99177.47;10434442;28;20036;-76
2023/01/15 23:01:20;;;;;;;1.30;1.20;;;;;;;0.62;97.72;99189.88;10421071;28;20037;-77
2023/01/15 23:06:27;;;;;;;1.20;1.05;;;;;;;0.58;97.55;99183.38;10433116;28;20053;-77
2023/01/15 23:11:29;;;;;;;1.52;1.10;;;;;;;0.58;98.03;99176.09;10446205;28;20030;-76
2023/01/15 23:16:31;;;;;;;1.20;1.10;;;;;;;0.57;98.25;99160.97;10430920;28;20037;-76
2023/01/15 23:21:34;;;;;;;1.17;0.85;;;;;;;0.50;98.38;99159.50;10434899;28;20037;-76
2023/01/15 23:26:37;;;;;;;1.25;0.90;;;;;;;0.46;98.27;99166.47;10441249;28;20079;-78
2023/01/15 23:31:39;;;;;;;1.52;1.20;;;;;;;0.41;99.15;99183.44;10399307;28;20056;-78
2023/01/15 23:36:41;;;;;;;1.65;1.10;;;;;;;0.37;99.65;99170.69;10423867;28;20045;-79
2023/01/15 23:47:06;;;;;;;1.27;1.17;;;;;;;0.30;100.00;99184.34;10431551;28;20059;-78
2023/01/15 23:52:09;;;;;;;1.70;1.05;;;;;;;0.26;100.00;99158.94;10432583;28;20080;-79
2023/01/15 23:57:11;;;;;;;2.50;1.00;;;;;;;0.28;100.00;99152.22;10400834;28;20044;-79
